sensor_id;sensor_type;location;lat;lon;timestamp;temperature;humidity
11385;DHT22;5747;56.748;13.882;2023-08-07T00:00:37;12.90;99.90
11385;DHT22;5747;56.748;13.882;2023-08-07T00:03:04;12.90;99.90
11385;DHT22;5747;56.748;13.882;2023-08-07T00:05:32;12.90;99.90
11385;DHT22;5747;56.748;13.882;2023-08-07T00:08:01;12.90;99.90
11385;DHT22;5747;56.748;13.882;2023-08-07T00:10:30;12.90;99.90
11385;DHT22;5747;56.748;13.882;2023-08-07T00:12:58;12.90;99.90
11385;DHT22;5747;56.748;13.882;2023-08-07T00:15:26;12.90;99.90
11385;DHT22;5747;56.748;13.882;2023-08-07T00:17:55;13.00;99.90
11385;DHT22;5747;56.748;13.882;2023-08-07T00:20:23;12.90;99.90
11385;DHT22;5747;56.748;13.882;2023-08-07T00:22:51;13.00;99.90
11385;DHT22;5747;56.748;13.882;2023-08-07T00:25:19;12.90;99.90
11385;DHT22;5747;56.748;13.882;2023-08-07T00:27:49;13.00;99.90
11385;DHT22;5747;56.748;13.882;2023-08-07T00:30:17;13.00;99.90
11385;DHT22;5747;56.748;13.882;2023-08-07T00:32:45;13.00;99.90
11385;DHT22;5747;56.748;13.882;2023-08-07T00:35:14;13.10;99.90
11385;DHT22;5747;56.748;13.882;2023-08-07T00:37:42;13.00;99.90
11385;DHT22;5747;56.748;13.882;2023-08-07T00:40:11;13.00;99.90
11385;DHT22;5747;56.748;13.882;2023-08-07T00:42:39;13.00;99.90
11385;DHT22;5747;56.748;13.882;2023-08-07T00:45:10;13.10;99.90
11385;DHT22;5747;56.748;13.882;2023-08-07T00:47:38;13.10;99.90
11385;DHT22;5747;56.748;13.882;2023-08-07T00:50:08;13.10;99.90
11385;DHT22;5747;56.748;13.882;2023-08-07T00:52:36;13.10;99.90
11385;DHT22;5747;56.748;13.882;2023-08-07T00:55:05;13.10;99.90
11385;DHT22;5747;56.748;13.882;2023-08-07T00:57:33;13.10;99.90
11385;DHT22;5747;56.748;13.882;2023-08-07T01:00:02;13.10;99.90
11385;DHT22;5747;56.748;13.882;2023-08-07T01:02:32;13.20;99.90
11385;DHT22;5747;56.748;13.882;2023-08-07T01:05:00;13.20;99.90
11385;DHT22;5747;56.748;13.882;2023-08-07T01:07:29;13.20;99.90
11385;DHT22;5747;56.748;13.882;2023-08-07T01:09:57;13.20;99.90
11385;DHT22;5747;56.748;13.882;2023-08-07T01:12:35;13.30;99.90
11385;DHT22;5747;56.748;13.882;2023-08-07T01:15:07;13.30;99.90
11385;DHT22;5747;56.748;13.882;2023-08-07T01:17:41;13.20;99.90
11385;DHT22;5747;56.748;13.882;2023-08-07T01:20:11;13.20;99.90
11385;DHT22;5747;56.748;13.882;2023-08-07T01:22:41;13.30;99.90
11385;DHT22;5747;56.748;13.882;2023-08-07T01:25:09;13.30;99.90
11385;DHT22;5747;56.748;13.882;2023-08-07T01:27:41;13.30;99.90
11385;DHT22;5747;56.748;13.882;2023-08-07T01:30:17;13.30;99.90
11385;DHT22;5747;56.748;13.882;2023-08-07T01:32:57;13.30;99.90
11385;DHT22;5747;56.748;13.882;2023-08-07T01:35:29;13.30;99.90
11385;DHT22;5747;56.748;13.882;2023-08-07T01:38:00;13.40;99.90
11385;DHT22;5747;56.748;13.882;2023-08-07T01:40:30;13.40;99.90
11385;DHT22;5747;56.748;13.882;2023-08-07T01:42:58;13.40;99.90
11385;DHT22;5747;56.748;13.882;2023-08-07T01:45:28;13.40;99.90
11385;DHT22;5747;56.748;13.882;2023-08-07T01:47:56;13.40;99.90
11385;DHT22;5747;56.748;13.882;2023-08-07T01:50:25;13.40;99.90
11385;DHT22;5747;56.748;13.882;2023-08-07T01:52:53;13.40;99.90
11385;DHT22;5747;56.748;13.882;2023-08-07T01:55:24;13.50;99.90
11385;DHT22;5747;56.748;13.882;2023-08-07T01:57:53;13.50;99.90
11385;DHT22;5747;56.748;13.882;2023-08-07T02:00:21;13.50;99.90
11385;DHT22;5747;56.748;13.882;2023-08-07T02:02:49;13.50;99.90
11385;DHT22;5747;56.748;13.882;2023-08-07T02:05:18;13.50;99.90
11385;DHT22;5747;56.748;13.882;2023-08-07T02:07:46;13.50;99.90
11385;DHT22;5747;56.748;13.882;2023-08-07T02:10:14;13.50;99.90
11385;DHT22;5747;56.748;13.882;2023-08-07T02:12:44;13.50;99.90
11385;DHT22;5747;56.748;13.882;2023-08-07T02:15:13;13.50;99.90
11385;DHT22;5747;56.748;13.882;2023-08-07T02:17:41;13.50;99.90
11385;DHT22;5747;56.748;13.882;2023-08-07T02:20:10;13.60;99.90
11385;DHT22;5747;56.748;13.882;2023-08-07T02:22:38;13.60;99.90
11385;DHT22;5747;56.748;13.882;2023-08-07T02:25:07;13.60;99.90
11385;DHT22;5747;56.748;13.882;2023-08-07T02:27:37;13.60;99.90
11385;DHT22;5747;56.748;13.882;2023-08-07T02:30:08;13.60;99.90
11385;DHT22;5747;56.748;13.882;2023-08-07T02:32:36;13.60;99.90
11385;DHT22;5747;56.748;13.882;2023-08-07T02:35:04;13.60;99.90
11385;DHT22;5747;56.748;13.882;2023-08-07T02:37:32;13.60;99.90
11385;DHT22;5747;56.748;13.882;2023-08-07T02:40:01;13.60;99.90
11385;DHT22;5747;56.748;13.882;2023-08-07T02:42:29;13.60;99.90
11385;DHT22;5747;56.748;13.882;2023-08-07T02:44:57;13.70;99.90
11385;DHT22;5747;56.748;13.882;2023-08-07T02:47:26;13.70;99.90
11385;DHT22;5747;56.748;13.882;2023-08-07T02:49:55;13.80;99.90
11385;DHT22;5747;56.748;13.882;2023-08-07T02:52:23;13.80;99.90
11385;DHT22;5747;56.748;13.882;2023-08-07T02:54:51;13.80;99.90
11385;DHT22;5747;56.748;13.882;2023-08-07T02:57:19;13.80;99.90
11385;DHT22;5747;56.748;13.882;2023-08-07T02:59:47;13.80;99.90
11385;DHT22;5747;56.748;13.882;2023-08-07T03:02:15;13.80;99.90
11385;DHT22;5747;56.748;13.882;2023-08-07T03:04:45;13.80;99.90
11385;DHT22;5747;56.748;13.882;2023-08-07T03:07:13;13.90;99.90
11385;DHT22;5747;56.748;13.882;2023-08-07T03:09:45;13.90;99.90
11385;DHT22;5747;56.748;13.882;2023-08-07T03:12:14;13.90;99.90
11385;DHT22;5747;56.748;13.882;2023-08-07T03:14:42;13.90;99.90
11385;DHT22;5747;56.748;13.882;2023-08-07T03:17:10;13.90;99.90
11385;DHT22;5747;56.748;13.882;2023-08-07T03:19:41;13.90;99.90
11385;DHT22;5747;56.748;13.882;2023-08-07T03:22:13;13.90;99.90
11385;DHT22;5747;56.748;13.882;2023-08-07T03:24:41;14.00;99.90
11385;DHT22;5747;56.748;13.882;2023-08-07T03:27:14;14.00;99.90
11385;DHT22;5747;56.748;13.882;2023-08-07T03:29:42;13.90;99.90
11385;DHT22;5747;56.748;13.882;2023-08-07T03:32:13;13.80;99.90
11385;DHT22;5747;56.748;13.882;2023-08-07T03:34:41;14.00;99.90
11385;DHT22;5747;56.748;13.882;2023-08-07T03:37:10;14.00;99.90
11385;DHT22;5747;56.748;13.882;2023-08-07T03:39:39;14.00;99.90
11385;DHT22;5747;56.748;13.882;2023-08-07T03:42:10;14.10;99.90
11385;DHT22;5747;56.748;13.882;2023-08-07T03:44:38;14.10;99.90
11385;DHT22;5747;56.748;13.882;2023-08-07T03:47:06;14.10;99.90
11385;DHT22;5747;56.748;13.882;2023-08-07T03:49:35;14.00;99.90
11385;DHT22;5747;56.748;13.882;2023-08-07T03:52:04;14.10;99.90
11385;DHT22;5747;56.748;13.882;2023-08-07T03:54:32;14.20;99.90
11385;DHT22;5747;56.748;13.882;2023-08-07T03:57:02;14.20;99.90
11385;DHT22;5747;56.748;13.882;2023-08-07T03:59:30;14.20;99.90
11385;DHT22;5747;56.748;13.882;2023-08-07T04:01:58;14.30;99.90
11385;DHT22;5747;56.748;13.882;2023-08-07T04:04:26;14.30;99.90
11385;DHT22;5747;56.748;13.882;2023-08-07T04:06:55;14.30;99.90
11385;DHT22;5747;56.748;13.882;2023-08-07T04:09:23;14.30;99.90
11385;DHT22;5747;56.748;13.882;2023-08-07T04:11:51;14.30;99.90
11385;DHT22;5747;56.748;13.882;2023-08-07T04:14:21;14.30;99.90
11385;DHT22;5747;56.748;13.882;2023-08-07T04:16:49;14.30;99.90
11385;DHT22;5747;56.748;13.882;2023-08-07T04:19:17;14.40;99.90
11385;DHT22;5747;56.748;13.882;2023-08-07T04:21:45;14.40;99.90
11385;DHT22;5747;56.748;13.882;2023-08-07T04:24:14;14.40;99.90
11385;DHT22;5747;56.748;13.882;2023-08-07T04:26:42;14.40;99.90
11385;DHT22;5747;56.748;13.882;2023-08-07T04:29:10;14.50;99.90
11385;DHT22;5747;56.748;13.882;2023-08-07T04:31:39;14.50;99.90
11385;DHT22;5747;56.748;13.882;2023-08-07T04:34:08;14.40;99.90
11385;DHT22;5747;56.748;13.882;2023-08-07T04:36:36;14.40;99.90
11385;DHT22;5747;56.748;13.882;2023-08-07T04:39:04;14.40;99.90
11385;DHT22;5747;56.748;13.882;2023-08-07T04:41:32;14.40;99.90
11385;DHT22;5747;56.748;13.882;2023-08-07T04:44:00;14.50;99.90
11385;DHT22;5747;56.748;13.882;2023-08-07T04:46:29;14.50;99.90
11385;DHT22;5747;56.748;13.882;2023-08-07T04:48:58;14.60;99.90
11385;DHT22;5747;56.748;13.882;2023-08-07T04:51:27;14.60;99.90
11385;DHT22;5747;56.748;13.882;2023-08-07T04:53:58;14.60;99.90
11385;DHT22;5747;56.748;13.882;2023-08-07T04:56:26;14.60;99.90
11385;DHT22;5747;56.748;13.882;2023-08-07T04:58:54;14.60;99.90
11385;DHT22;5747;56.748;13.882;2023-08-07T05:01:22;14.70;99.90
11385;DHT22;5747;56.748;13.882;2023-08-07T05:03:50;14.70;99.90
11385;DHT22;5747;56.748;13.882;2023-08-07T05:06:20;14.70;99.90
11385;DHT22;5747;56.748;13.882;2023-08-07T05:08:48;14.80;99.90
11385;DHT22;5747;56.748;13.882;2023-08-07T05:11:16;14.80;99.90
11385;DHT22;5747;56.748;13.882;2023-08-07T05:13:46;14.90;99.90
11385;DHT22;5747;56.748;13.882;2023-08-07T05:16:14;14.90;99.90
11385;DHT22;5747;56.748;13.882;2023-08-07T05:18:45;14.90;99.90
11385;DHT22;5747;56.748;13.882;2023-08-07T05:21:17;15.00;99.90
11385;DHT22;5747;56.748;13.882;2023-08-07T05:23:46;15.10;99.90
11385;DHT22;5747;56.748;13.882;2023-08-07T05:26:16;15.30;99.90
11385;DHT22;5747;56.748;13.882;2023-08-07T05:28:44;15.40;99.90
11385;DHT22;5747;56.748;13.882;2023-08-07T05:31:13;15.40;99.90
11385;DHT22;5747;56.748;13.882;2023-08-07T05:33:41;15.50;99.90
11385;DHT22;5747;56.748;13.882;2023-08-07T05:36:09;15.60;99.90
11385;DHT22;5747;56.748;13.882;2023-08-07T05:38:37;15.70;99.90
11385;DHT22;5747;56.748;13.882;2023-08-07T05:41:08;15.90;99.90
11385;DHT22;5747;56.748;13.882;2023-08-07T05:43:36;16.00;99.90
11385;DHT22;5747;56.748;13.882;2023-08-07T05:46:04;16.00;99.90
11385;DHT22;5747;56.748;13.882;2023-08-07T05:48:32;16.10;99.90
11385;DHT22;5747;56.748;13.882;2023-08-07T05:51:00;16.20;99.90
11385;DHT22;5747;56.748;13.882;2023-08-07T05:53:29;16.30;99.90
11385;DHT22;5747;56.748;13.882;2023-08-07T05:55:57;16.30;99.90
11385;DHT22;5747;56.748;13.882;2023-08-07T05:58:26;16.40;99.90
11385;DHT22;5747;56.748;13.882;2023-08-07T06:00:54;16.40;99.90
11385;DHT22;5747;56.748;13.882;2023-08-07T06:03:23;16.50;99.90
11385;DHT22;5747;56.748;13.882;2023-08-07T06:05:51;16.50;99.90
11385;DHT22;5747;56.748;13.882;2023-08-07T06:08:19;16.50;99.90
11385;DHT22;5747;56.748;13.882;2023-08-07T06:10:47;16.50;99.90
11385;DHT22;5747;56.748;13.882;2023-08-07T06:13:15;16.50;99.90
11385;DHT22;5747;56.748;13.882;2023-08-07T06:15:57;16.60;99.90
11385;DHT22;5747;56.748;13.882;2023-08-07T06:18:26;16.60;99.90
11385;DHT22;5747;56.748;13.882;2023-08-07T06:20:54;16.60;99.90
11385;DHT22;5747;56.748;13.882;2023-08-07T06:23:22;16.70;99.90
11385;DHT22;5747;56.748;13.882;2023-08-07T06:25:50;16.70;99.90
11385;DHT22;5747;56.748;13.882;2023-08-07T06:28:25;16.90;99.90
11385;DHT22;5747;56.748;13.882;2023-08-07T06:30:53;16.90;99.90
11385;DHT22;5747;56.748;13.882;2023-08-07T06:33:29;17.00;99.90
11385;DHT22;5747;56.748;13.882;2023-08-07T06:35:57;17.10;99.90
11385;DHT22;5747;56.748;13.882;2023-08-07T06:38:25;17.00;99.90
11385;DHT22;5747;56.748;13.882;2023-08-07T06:40:53;17.10;99.90
11385;DHT22;5747;56.748;13.882;2023-08-07T06:43:21;17.20;99.90
11385;DHT22;5747;56.748;13.882;2023-08-07T06:45:50;17.30;99.90
11385;DHT22;5747;56.748;13.882;2023-08-07T06:48:18;17.40;99.90
11385;DHT22;5747;56.748;13.882;2023-08-07T06:50:48;17.50;99.90
11385;DHT22;5747;56.748;13.882;2023-08-07T06:53:16;17.40;99.90
11385;DHT22;5747;56.748;13.882;2023-08-07T06:55:45;17.40;99.90
11385;DHT22;5747;56.748;13.882;2023-08-07T06:58:13;17.50;99.90
11385;DHT22;5747;56.748;13.882;2023-08-07T07:00:41;17.50;99.90
11385;DHT22;5747;56.748;13.882;2023-08-07T07:03:09;17.50;99.90
11385;DHT22;5747;56.748;13.882;2023-08-07T07:05:38;17.60;99.90
11385;DHT22;5747;56.748;13.882;2023-08-07T07:08:07;17.70;99.90
11385;DHT22;5747;56.748;13.882;2023-08-07T07:10:35;17.70;99.90
11385;DHT22;5747;56.748;13.882;2023-08-07T07:13:03;17.80;99.90
11385;DHT22;5747;56.748;13.882;2023-08-07T07:15:32;17.70;99.90
11385;DHT22;5747;56.748;13.882;2023-08-07T07:18:00;17.60;99.90
11385;DHT22;5747;56.748;13.882;2023-08-07T07:20:28;17.60;99.90
11385;DHT22;5747;56.748;13.882;2023-08-07T07:22:56;17.60;99.90
11385;DHT22;5747;56.748;13.882;2023-08-07T07:25:26;17.70;99.90
11385;DHT22;5747;56.748;13.882;2023-08-07T07:27:54;17.90;99.90
11385;DHT22;5747;56.748;13.882;2023-08-07T07:30:22;17.90;99.90
11385;DHT22;5747;56.748;13.882;2023-08-07T07:32:50;18.20;99.90
11385;DHT22;5747;56.748;13.882;2023-08-07T07:35:18;18.30;99.90
11385;DHT22;5747;56.748;13.882;2023-08-07T07:37:47;18.20;99.90
11385;DHT22;5747;56.748;13.882;2023-08-07T07:40:15;18.10;99.90
11385;DHT22;5747;56.748;13.882;2023-08-07T07:42:44;17.80;99.90
11385;DHT22;5747;56.748;13.882;2023-08-07T07:45:13;17.50;99.90
11385;DHT22;5747;56.748;13.882;2023-08-07T07:47:41;17.30;99.90
11385;DHT22;5747;56.748;13.882;2023-08-07T07:50:10;17.20;99.90
11385;DHT22;5747;56.748;13.882;2023-08-07T07:52:39;17.10;99.90
11385;DHT22;5747;56.748;13.882;2023-08-07T07:55:08;17.00;99.90
11385;DHT22;5747;56.748;13.882;2023-08-07T07:57:36;17.00;99.90
11385;DHT22;5747;56.748;13.882;2023-08-07T08:00:07;16.90;99.90
11385;DHT22;5747;56.748;13.882;2023-08-07T08:02:39;16.90;99.90
11385;DHT22;5747;56.748;13.882;2023-08-07T08:05:10;17.00;99.90
11385;DHT22;5747;56.748;13.882;2023-08-07T08:07:39;17.00;99.90
11385;DHT22;5747;56.748;13.882;2023-08-07T08:10:08;17.20;99.90
11385;DHT22;5747;56.748;13.882;2023-08-07T08:12:36;17.30;99.90
11385;DHT22;5747;56.748;13.882;2023-08-07T08:15:07;17.30;99.90
11385;DHT22;5747;56.748;13.882;2023-08-07T08:17:35;17.30;99.90
11385;DHT22;5747;56.748;13.882;2023-08-07T08:20:05;17.20;99.90
11385;DHT22;5747;56.748;13.882;2023-08-07T08:22:33;17.00;99.90
11385;DHT22;5747;56.748;13.882;2023-08-07T08:25:02;17.00;99.90
11385;DHT22;5747;56.748;13.882;2023-08-07T08:27:31;16.90;99.90
11385;DHT22;5747;56.748;13.882;2023-08-07T08:29:59;16.90;99.90
11385;DHT22;5747;56.748;13.882;2023-08-07T08:32:29;16.80;99.90
11385;DHT22;5747;56.748;13.882;2023-08-07T08:34:57;16.80;99.90
11385;DHT22;5747;56.748;13.882;2023-08-07T08:37:25;17.00;99.90
11385;DHT22;5747;56.748;13.882;2023-08-07T08:39:53;17.10;99.90
11385;DHT22;5747;56.748;13.882;2023-08-07T08:42:22;17.10;99.90
11385;DHT22;5747;56.748;13.882;2023-08-07T08:44:52;17.10;99.90
11385;DHT22;5747;56.748;13.882;2023-08-07T08:47:22;17.10;99.90
11385;DHT22;5747;56.748;13.882;2023-08-07T08:49:56;17.20;99.90
11385;DHT22;5747;56.748;13.882;2023-08-07T08:52:28;17.10;99.90
11385;DHT22;5747;56.748;13.882;2023-08-07T08:54:57;17.20;99.90
11385;DHT22;5747;56.748;13.882;2023-08-07T08:57:25;17.20;99.90
11385;DHT22;5747;56.748;13.882;2023-08-07T08:59:55;17.30;99.90
11385;DHT22;5747;56.748;13.882;2023-08-07T09:02:25;17.50;99.90
11385;DHT22;5747;56.748;13.882;2023-08-07T09:04:54;17.60;99.90
11385;DHT22;5747;56.748;13.882;2023-08-07T09:07:23;17.80;99.90
11385;DHT22;5747;56.748;13.882;2023-08-07T09:09:51;17.90;99.90
11385;DHT22;5747;56.748;13.882;2023-08-07T09:12:25;18.20;99.90
11385;DHT22;5747;56.748;13.882;2023-08-07T09:14:56;18.40;99.90
11385;DHT22;5747;56.748;13.882;2023-08-07T09:17:28;18.60;99.90
11385;DHT22;5747;56.748;13.882;2023-08-07T09:19:58;18.70;99.90
11385;DHT22;5747;56.748;13.882;2023-08-07T09:22:27;18.90;99.90
11385;DHT22;5747;56.748;13.882;2023-08-07T09:24:55;19.00;99.90
11385;DHT22;5747;56.748;13.882;2023-08-07T09:27:26;19.10;99.90
11385;DHT22;5747;56.748;13.882;2023-08-07T09:29:55;19.00;99.90
11385;DHT22;5747;56.748;13.882;2023-08-07T09:32:23;19.00;99.90
11385;DHT22;5747;56.748;13.882;2023-08-07T09:34:52;19.10;99.90
11385;DHT22;5747;56.748;13.882;2023-08-07T09:37:22;19.30;99.90
11385;DHT22;5747;56.748;13.882;2023-08-07T09:39:51;19.50;99.90
11385;DHT22;5747;56.748;13.882;2023-08-07T09:42:19;19.70;99.90
11385;DHT22;5747;56.748;13.882;2023-08-07T09:44:47;19.70;99.90
11385;DHT22;5747;56.748;13.882;2023-08-07T09:47:16;19.70;99.90
11385;DHT22;5747;56.748;13.882;2023-08-07T09:49:46;19.90;99.90
11385;DHT22;5747;56.748;13.882;2023-08-07T09:52:14;20.20;99.90
11385;DHT22;5747;56.748;13.882;2023-08-07T09:54:44;20.20;99.90
11385;DHT22;5747;56.748;13.882;2023-08-07T09:57:13;20.10;99.90
11385;DHT22;5747;56.748;13.882;2023-08-07T09:59:41;20.20;99.90
11385;DHT22;5747;56.748;13.882;2023-08-07T10:02:10;20.10;99.90
11385;DHT22;5747;56.748;13.882;2023-08-07T10:04:39;20.10;99.90
11385;DHT22;5747;56.748;13.882;2023-08-07T10:07:09;20.00;99.90
11385;DHT22;5747;56.748;13.882;2023-08-07T10:09:40;20.00;99.90
11385;DHT22;5747;56.748;13.882;2023-08-07T10:12:10;19.90;99.90
11385;DHT22;5747;56.748;13.882;2023-08-07T10:14:40;20.00;99.90
11385;DHT22;5747;56.748;13.882;2023-08-07T10:17:09;20.00;99.90
11385;DHT22;5747;56.748;13.882;2023-08-07T10:19:38;19.90;99.90
11385;DHT22;5747;56.748;13.882;2023-08-07T10:22:06;19.70;99.90
11385;DHT22;5747;56.748;13.882;2023-08-07T10:24:36;19.40;99.90
11385;DHT22;5747;56.748;13.882;2023-08-07T10:27:07;18.90;99.90
11385;DHT22;5747;56.748;13.882;2023-08-07T10:29:37;18.60;99.90
11385;DHT22;5747;56.748;13.882;2023-08-07T10:32:07;18.40;99.90
11385;DHT22;5747;56.748;13.882;2023-08-07T10:34:37;18.20;99.90
11385;DHT22;5747;56.748;13.882;2023-08-07T10:37:06;18.10;99.90
11385;DHT22;5747;56.748;13.882;2023-08-07T10:39:34;18.00;99.90
11385;DHT22;5747;56.748;13.882;2023-08-07T10:42:03;18.00;99.90
11385;DHT22;5747;56.748;13.882;2023-08-07T10:44:31;17.90;99.90
11385;DHT22;5747;56.748;13.882;2023-08-07T10:47:02;18.00;99.90
11385;DHT22;5747;56.748;13.882;2023-08-07T10:49:34;18.00;99.90
11385;DHT22;5747;56.748;13.882;2023-08-07T10:52:07;18.10;99.90
11385;DHT22;5747;56.748;13.882;2023-08-07T10:54:39;18.20;99.90
11385;DHT22;5747;56.748;13.882;2023-08-07T10:57:11;18.40;99.90
11385;DHT22;5747;56.748;13.882;2023-08-07T10:59:44;18.50;99.90
11385;DHT22;5747;56.748;13.882;2023-08-07T11:02:23;18.60;99.90
11385;DHT22;5747;56.748;13.882;2023-08-07T11:04:52;18.60;99.90
11385;DHT22;5747;56.748;13.882;2023-08-07T11:07:23;18.40;99.90
11385;DHT22;5747;56.748;13.882;2023-08-07T11:09:51;18.40;99.90
11385;DHT22;5747;56.748;13.882;2023-08-07T11:12:20;18.50;99.90
11385;DHT22;5747;56.748;13.882;2023-08-07T11:14:48;18.50;99.90
11385;DHT22;5747;56.748;13.882;2023-08-07T11:17:17;18.50;99.90
11385;DHT22;5747;56.748;13.882;2023-08-07T11:19:47;18.50;99.90
11385;DHT22;5747;56.748;13.882;2023-08-07T11:22:15;18.60;99.90
11385;DHT22;5747;56.748;13.882;2023-08-07T11:24:45;18.70;99.90
11385;DHT22;5747;56.748;13.882;2023-08-07T11:27:13;18.70;99.90
11385;DHT22;5747;56.748;13.882;2023-08-07T11:29:44;18.50;99.90
11385;DHT22;5747;56.748;13.882;2023-08-07T11:32:14;18.20;99.90
11385;DHT22;5747;56.748;13.882;2023-08-07T11:34:48;18.60;99.90
11385;DHT22;5747;56.748;13.882;2023-08-07T11:37:17;18.80;99.90
11385;DHT22;5747;56.748;13.882;2023-08-07T11:39:46;18.80;99.90
11385;DHT22;5747;56.748;13.882;2023-08-07T11:42:14;19.30;99.90
11385;DHT22;5747;56.748;13.882;2023-08-07T11:44:42;19.70;99.90
11385;DHT22;5747;56.748;13.882;2023-08-07T11:47:10;20.00;99.90
11385;DHT22;5747;56.748;13.882;2023-08-07T11:49:38;20.00;99.90
11385;DHT22;5747;56.748;13.882;2023-08-07T11:52:08;20.30;99.90
11385;DHT22;5747;56.748;13.882;2023-08-07T11:54:36;20.10;99.90
11385;DHT22;5747;56.748;13.882;2023-08-07T11:57:15;20.20;99.90
11385;DHT22;5747;56.748;13.882;2023-08-07T11:59:47;20.10;99.90
11385;DHT22;5747;56.748;13.882;2023-08-07T12:02:15;20.20;99.90
11385;DHT22;5747;56.748;13.882;2023-08-07T12:04:44;19.60;99.90
11385;DHT22;5747;56.748;13.882;2023-08-07T12:07:17;19.30;99.90
11385;DHT22;5747;56.748;13.882;2023-08-07T12:09:50;20.10;99.90
11385;DHT22;5747;56.748;13.882;2023-08-07T12:12:19;20.20;99.90
11385;DHT22;5747;56.748;13.882;2023-08-07T12:14:52;20.40;99.90
11385;DHT22;5747;56.748;13.882;2023-08-07T12:17:21;20.60;99.90
11385;DHT22;5747;56.748;13.882;2023-08-07T12:19:50;20.60;99.90
11385;DHT22;5747;56.748;13.882;2023-08-07T12:22:20;20.80;99.90
11385;DHT22;5747;56.748;13.882;2023-08-07T12:24:48;20.90;99.90
11385;DHT22;5747;56.748;13.882;2023-08-07T12:27:17;20.70;99.90
11385;DHT22;5747;56.748;13.882;2023-08-07T12:29:46;20.40;99.90
11385;DHT22;5747;56.748;13.882;2023-08-07T12:32:14;20.20;99.90
11385;DHT22;5747;56.748;13.882;2023-08-07T12:34:42;20.00;99.90
11385;DHT22;5747;56.748;13.882;2023-08-07T12:37:13;20.00;99.90
11385;DHT22;5747;56.748;13.882;2023-08-07T12:39:43;20.00;99.90
11385;DHT22;5747;56.748;13.882;2023-08-07T12:42:14;19.90;99.90
11385;DHT22;5747;56.748;13.882;2023-08-07T12:44:45;19.90;99.90
11385;DHT22;5747;56.748;13.882;2023-08-07T12:47:13;20.10;99.90
11385;DHT22;5747;56.748;13.882;2023-08-07T12:49:41;20.30;99.90
11385;DHT22;5747;56.748;13.882;2023-08-07T12:52:11;20.30;99.90
11385;DHT22;5747;56.748;13.882;2023-08-07T12:54:40;19.60;99.90
11385;DHT22;5747;56.748;13.882;2023-08-07T12:57:09;19.50;99.90
11385;DHT22;5747;56.748;13.882;2023-08-07T12:59:37;19.30;99.90
11385;DHT22;5747;56.748;13.882;2023-08-07T13:02:05;19.20;99.90
11385;DHT22;5747;56.748;13.882;2023-08-07T13:04:34;19.20;99.90
11385;DHT22;5747;56.748;13.882;2023-08-07T13:07:02;19.10;99.90
11385;DHT22;5747;56.748;13.882;2023-08-07T13:09:30;18.50;99.90
11385;DHT22;5747;56.748;13.882;2023-08-07T13:11:58;18.30;99.90
11385;DHT22;5747;56.748;13.882;2023-08-07T13:14:28;18.40;99.90
11385;DHT22;5747;56.748;13.882;2023-08-07T13:16:56;18.60;99.90
11385;DHT22;5747;56.748;13.882;2023-08-07T13:19:25;18.70;99.90
11385;DHT22;5747;56.748;13.882;2023-08-07T13:21:53;18.80;99.90
11385;DHT22;5747;56.748;13.882;2023-08-07T13:24:22;18.80;99.90
11385;DHT22;5747;56.748;13.882;2023-08-07T13:26:50;18.80;99.90
11385;DHT22;5747;56.748;13.882;2023-08-07T13:29:18;18.70;99.90
11385;DHT22;5747;56.748;13.882;2023-08-07T13:31:47;18.80;99.90
11385;DHT22;5747;56.748;13.882;2023-08-07T13:34:16;18.90;99.90
11385;DHT22;5747;56.748;13.882;2023-08-07T13:36:44;18.90;99.90
11385;DHT22;5747;56.748;13.882;2023-08-07T13:39:12;18.90;99.90
11385;DHT22;5747;56.748;13.882;2023-08-07T13:41:40;18.90;99.90
11385;DHT22;5747;56.748;13.882;2023-08-07T13:44:08;18.60;99.90
11385;DHT22;5747;56.748;13.882;2023-08-07T13:46:40;18.70;99.90
11385;DHT22;5747;56.748;13.882;2023-08-07T13:49:09;18.60;99.90
11385;DHT22;5747;56.748;13.882;2023-08-07T13:51:37;18.70;99.90
11385;DHT22;5747;56.748;13.882;2023-08-07T13:54:05;18.80;99.90
11385;DHT22;5747;56.748;13.882;2023-08-07T13:56:34;18.60;99.90
11385;DHT22;5747;56.748;13.882;2023-08-07T13:59:02;18.00;99.90
11385;DHT22;5747;56.748;13.882;2023-08-07T14:01:31;17.50;99.90
11385;DHT22;5747;56.748;13.882;2023-08-07T14:04:00;17.20;99.90
11385;DHT22;5747;56.748;13.882;2023-08-07T14:06:30;17.00;99.90
11385;DHT22;5747;56.748;13.882;2023-08-07T14:08:58;16.90;99.90
11385;DHT22;5747;56.748;13.882;2023-08-07T14:11:26;16.80;99.90
11385;DHT22;5747;56.748;13.882;2023-08-07T14:13:57;16.80;99.90
11385;DHT22;5747;56.748;13.882;2023-08-07T14:16:26;16.80;99.90
11385;DHT22;5747;56.748;13.882;2023-08-07T14:18:54;16.70;99.90
11385;DHT22;5747;56.748;13.882;2023-08-07T14:21:22;16.70;99.90
11385;DHT22;5747;56.748;13.882;2023-08-07T14:23:52;16.70;99.90
11385;DHT22;5747;56.748;13.882;2023-08-07T14:26:20;16.50;99.90
11385;DHT22;5747;56.748;13.882;2023-08-07T14:28:48;16.50;99.90
11385;DHT22;5747;56.748;13.882;2023-08-07T14:31:16;16.20;99.90
11385;DHT22;5747;56.748;13.882;2023-08-07T14:33:45;16.20;99.90
11385;DHT22;5747;56.748;13.882;2023-08-07T14:36:13;16.10;99.90
11385;DHT22;5747;56.748;13.882;2023-08-07T14:38:41;16.20;99.90
11385;DHT22;5747;56.748;13.882;2023-08-07T14:41:11;16.10;99.90
11385;DHT22;5747;56.748;13.882;2023-08-07T14:43:39;16.20;99.90
11385;DHT22;5747;56.748;13.882;2023-08-07T14:46:07;16.10;99.90
11385;DHT22;5747;56.748;13.882;2023-08-07T14:48:36;16.10;99.90
11385;DHT22;5747;56.748;13.882;2023-08-07T14:51:04;15.90;99.90
11385;DHT22;5747;56.748;13.882;2023-08-07T14:53:32;16.00;99.90
11385;DHT22;5747;56.748;13.882;2023-08-07T14:56:02;16.10;99.90
11385;DHT22;5747;56.748;13.882;2023-08-07T14:58:31;16.00;99.90
11385;DHT22;5747;56.748;13.882;2023-08-07T15:01:00;16.00;99.90
11385;DHT22;5747;56.748;13.882;2023-08-07T15:03:28;15.90;99.90
11385;DHT22;5747;56.748;13.882;2023-08-07T15:05:56;15.90;99.90
11385;DHT22;5747;56.748;13.882;2023-08-07T15:08:25;16.10;99.90
11385;DHT22;5747;56.748;13.882;2023-08-07T15:10:53;16.00;99.90
11385;DHT22;5747;56.748;13.882;2023-08-07T15:13:21;15.90;99.90
11385;DHT22;5747;56.748;13.882;2023-08-07T15:15:50;15.90;99.90
11385;DHT22;5747;56.748;13.882;2023-08-07T15:18:19;15.90;99.90
11385;DHT22;5747;56.748;13.882;2023-08-07T15:20:47;15.60;99.90
11385;DHT22;5747;56.748;13.882;2023-08-07T15:23:16;15.60;99.90
11385;DHT22;5747;56.748;13.882;2023-08-07T15:25:44;15.40;99.90
11385;DHT22;5747;56.748;13.882;2023-08-07T15:28:12;15.30;99.90
11385;DHT22;5747;56.748;13.882;2023-08-07T15:30:47;15.20;99.90
11385;DHT22;5747;56.748;13.882;2023-08-07T15:33:17;15.00;99.90
11385;DHT22;5747;56.748;13.882;2023-08-07T15:35:53;14.90;99.90
11385;DHT22;5747;56.748;13.882;2023-08-07T15:38:23;15.00;99.90
11385;DHT22;5747;56.748;13.882;2023-08-07T15:40:51;14.90;99.90